ALK253 VCBI-OEDF
Flight info
| Callsign | ALK253 |
|---|---|
| Flight time | 4h 48m |
| Altitude | 39000 |
| Route | BASUR1D BASUR P570 GOLNI N569 TOKRA/N0454F280 Y511 BOSOB M321 KSA/N0454F390 N687 MIBRA |
| Aircraft | A20N/M-SDE2E3FGHIRWXY/LB1 |
Departure
| Time | 2026-05-08 14:17 |
|---|---|
| Airport | Bandaranaike International Colombo Airport (VCBI) |
Arrival
| Time | 2026-05-08 19:05 |
|---|---|
| Airport | King Fahd International Airport (OEDF) |
| Time | Latitude | Longitude | Altitude | Speed | Heading |
|---|---|---|---|---|---|
| 2026-05-08 14:12 | 7.17808 | 79.88499 | 27 ft | 10 kts | 299° |
| 2026-05-08 14:12 | 7.17853 | 79.88445 | 27 ft | 10 kts | 320° |
| 2026-05-08 14:12 | 7.17911 | 79.88446 | 27 ft | 9 kts | 30° |
| 2026-05-08 14:12 | 7.17965 | 79.88486 | 27 ft | 12 kts | 38° |
| 2026-05-08 14:13 | 7.18053 | 79.88554 | 27 ft | 19 kts | 38° |
| 2026-05-08 14:13 | 7.18164 | 79.88639 | 27 ft | 21 kts | 37° |
| 2026-05-08 14:13 | 7.18267 | 79.88717 | 27 ft | 18 kts | 37° |
| 2026-05-08 14:13 | 7.18365 | 79.88793 | 27 ft | 18 kts | 37° |
| 2026-05-08 14:14 | 7.18472 | 79.88874 | 27 ft | 20 kts | 37° |
| 2026-05-08 14:14 | 7.18592 | 79.88966 | 27 ft | 22 kts | 37° |
| 2026-05-08 14:14 | 7.18717 | 79.89061 | 27 ft | 23 kts | 37° |
| 2026-05-08 14:14 | 7.18841 | 79.89156 | 27 ft | 21 kts | 38° |
| 2026-05-08 14:15 | 7.18929 | 79.89223 | 27 ft | 12 kts | 37° |
| 2026-05-08 14:15 | 7.18994 | 79.89273 | 27 ft | 12 kts | 37° |
| 2026-05-08 14:15 | 7.19080 | 79.89338 | 27 ft | 18 kts | 38° |
| 2026-05-08 14:15 | 7.19183 | 79.89406 | 26 ft | 16 kts | 9° |
| 2026-05-08 14:16 | 7.19260 | 79.89344 | 26 ft | 14 kts | 314° |
| 2026-05-08 14:16 | 7.19292 | 79.89278 | 26 ft | 7 kts | 224° |
| 2026-05-08 14:16 | 7.19150 | 79.89166 | 27 ft | 59 kts | 218° |
| 2026-05-08 14:16 | 7.18643 | 79.88777 | 29 ft | 121 kts | 217° |
| 2026-05-08 14:17 | 7.17835 | 79.88163 | 89 ft | 163 kts | 217° |
| 2026-05-08 14:17 | 7.16909 | 79.87472 | 612 ft | 167 kts | 216° |
| 2026-05-08 14:17 | 7.15977 | 79.86758 | 1185 ft | 171 kts | 217° |
| 2026-05-08 14:17 | 7.15138 | 79.85926 | 1811 ft | 172 kts | 245° |
| 2026-05-08 14:18 | 7.14906 | 79.84739 | 2252 ft | 183 kts | 283° |
| 2026-05-08 14:18 | 7.15329 | 79.83442 | 2532 ft | 209 kts | 296° |
| 2026-05-08 14:18 | 7.16051 | 79.82082 | 2819 ft | 234 kts | 301° |
| 2026-05-08 14:18 | 7.16961 | 79.80611 | 3153 ft | 260 kts | 303° |
| 2026-05-08 14:19 | 7.17808 | 79.78934 | 3704 ft | 274 kts | 293° |
| 2026-05-08 14:19 | 7.18649 | 79.77197 | 4472 ft | 278 kts | 301° |
| 2026-05-08 14:19 | 7.19758 | 79.75574 | 5131 ft | 283 kts | 307° |
| 2026-05-08 14:19 | 7.20923 | 79.73976 | 6013 ft | 284 kts | 307° |
| 2026-05-08 14:20 | 7.22122 | 79.72373 | 6775 ft | 288 kts | 308° |
| 2026-05-08 14:20 | 7.23344 | 79.70767 | 7539 ft | 291 kts | 308° |
| 2026-05-08 14:20 | 7.24510 | 79.69090 | 8287 ft | 294 kts | 301° |
| 2026-05-08 14:20 | 7.25402 | 79.67223 | 9067 ft | 297 kts | 295° |
| 2026-05-08 14:21 | 7.26235 | 79.65336 | 9803 ft | 300 kts | 295° |
| 2026-05-08 14:21 | 7.27098 | 79.63400 | 10392 ft | 310 kts | 295° |
| 2026-05-08 14:21 | 7.28015 | 79.61353 | 10583 ft | 332 kts | 295° |
| 2026-05-08 14:21 | 7.28994 | 79.59171 | 10814 ft | 350 kts | 295° |
| 2026-05-08 14:22 | 7.30005 | 79.56915 | 11407 ft | 355 kts | 295° |
| 2026-05-08 14:22 | 7.31025 | 79.54635 | 12091 ft | 358 kts | 295° |
| 2026-05-08 14:22 | 7.32050 | 79.52338 | 12764 ft | 361 kts | 295° |
| 2026-05-08 14:22 | 7.33086 | 79.50021 | 13410 ft | 365 kts | 295° |
| 2026-05-08 14:23 | 7.34135 | 79.47677 | 13997 ft | 368 kts | 295° |
| 2026-05-08 14:23 | 7.35191 | 79.45318 | 14575 ft | 371 kts | 295° |
| 2026-05-08 14:23 | 7.36256 | 79.42939 | 15139 ft | 374 kts | 295° |
| 2026-05-08 14:23 | 7.37332 | 79.40533 | 15677 ft | 378 kts | 295° |
| 2026-05-08 14:24 | 7.38416 | 79.38110 | 16220 ft | 381 kts | 295° |
| 2026-05-08 14:24 | 7.39510 | 79.35665 | 16725 ft | 385 kts | 295° |
| 2026-05-08 14:24 | 7.40614 | 79.33195 | 17229 ft | 388 kts | 295° |
| 2026-05-08 14:24 | 7.41726 | 79.30708 | 17754 ft | 391 kts | 295° |
| 2026-05-08 14:25 | 7.42851 | 79.28194 | 18222 ft | 395 kts | 295° |
| 2026-05-08 14:25 | 7.43984 | 79.25659 | 18641 ft | 398 kts | 295° |
| 2026-05-08 14:25 | 7.45125 | 79.23106 | 19077 ft | 401 kts | 295° |
| 2026-05-08 14:25 | 7.46274 | 79.20534 | 19502 ft | 404 kts | 295° |
| 2026-05-08 14:26 | 7.47430 | 79.17945 | 19922 ft | 407 kts | 295° |
| 2026-05-08 14:26 | 7.48593 | 79.15341 | 20357 ft | 409 kts | 295° |
| 2026-05-08 14:26 | 7.49766 | 79.12714 | 20770 ft | 412 kts | 294° |
| 2026-05-08 14:26 | 7.50945 | 79.10071 | 21160 ft | 415 kts | 294° |
| 2026-05-08 14:27 | 7.52133 | 79.07408 | 21586 ft | 418 kts | 294° |
| 2026-05-08 14:27 | 7.53327 | 79.04731 | 21998 ft | 420 kts | 294° |
| 2026-05-08 14:27 | 7.54531 | 79.02032 | 22400 ft | 423 kts | 294° |
| 2026-05-08 14:27 | 7.55741 | 78.99319 | 22776 ft | 426 kts | 294° |
| 2026-05-08 14:28 | 7.56959 | 78.96587 | 23156 ft | 429 kts | 294° |
| 2026-05-08 14:28 | 7.58188 | 78.93833 | 23509 ft | 432 kts | 294° |
| 2026-05-08 14:28 | 7.59422 | 78.91062 | 23844 ft | 434 kts | 294° |
| 2026-05-08 14:28 | 7.60661 | 78.88282 | 24161 ft | 436 kts | 294° |
| 2026-05-08 14:29 | 7.61907 | 78.85481 | 24495 ft | 438 kts | 294° |
| 2026-05-08 14:29 | 7.63156 | 78.82674 | 24810 ft | 440 kts | 294° |
| 2026-05-08 14:29 | 7.64415 | 78.79848 | 25110 ft | 443 kts | 294° |
| 2026-05-08 14:29 | 7.65678 | 78.77011 | 25422 ft | 445 kts | 294° |
| 2026-05-08 14:30 | 7.66946 | 78.74163 | 25716 ft | 447 kts | 294° |
| 2026-05-08 14:30 | 7.68222 | 78.71296 | 26004 ft | 449 kts | 294° |
| 2026-05-08 14:30 | 7.69501 | 78.68420 | 26271 ft | 452 kts | 294° |
| 2026-05-08 14:30 | 7.70792 | 78.65519 | 26554 ft | 453 kts | 294° |
| 2026-05-08 14:31 | 7.72083 | 78.62615 | 26837 ft | 455 kts | 294° |
| 2026-05-08 14:31 | 7.73383 | 78.59692 | 27096 ft | 458 kts | 294° |
| 2026-05-08 14:31 | 7.74688 | 78.56758 | 27351 ft | 460 kts | 294° |
| 2026-05-08 14:32 | 7.77313 | 78.50850 | 27869 ft | 464 kts | 294° |
| 2026-05-08 14:32 | 7.78635 | 78.47874 | 28098 ft | 466 kts | 294° |
| 2026-05-08 14:32 | 7.79944 | 78.44926 | 28340 ft | 468 kts | 294° |
| 2026-05-08 14:32 | 7.81295 | 78.41884 | 28578 ft | 470 kts | 294° |
| 2026-05-08 14:33 | 7.82632 | 78.38873 | 28812 ft | 472 kts | 294° |
| 2026-05-08 14:33 | 7.83957 | 78.35888 | 29023 ft | 474 kts | 294° |
| 2026-05-08 14:33 | 7.85307 | 78.32852 | 29228 ft | 476 kts | 294° |
| 2026-05-08 14:33 | 7.86662 | 78.29802 | 29450 ft | 477 kts | 294° |
| 2026-05-08 14:34 | 7.88023 | 78.26736 | 29665 ft | 480 kts | 294° |
| 2026-05-08 14:34 | 7.89388 | 78.23657 | 29889 ft | 481 kts | 294° |
| 2026-05-08 14:34 | 7.90752 | 78.20575 | 30104 ft | 482 kts | 294° |
| 2026-05-08 14:34 | 7.92121 | 78.17484 | 30313 ft | 484 kts | 294° |
| 2026-05-08 14:35 | 7.93496 | 78.14380 | 30520 ft | 485 kts | 294° |
| 2026-05-08 14:35 | 7.94875 | 78.11274 | 30721 ft | 486 kts | 294° |
| 2026-05-08 14:35 | 7.96261 | 78.08160 | 30945 ft | 487 kts | 294° |
| 2026-05-08 14:35 | 7.97649 | 78.05040 | 31215 ft | 487 kts | 294° |
| 2026-05-08 14:36 | 7.99033 | 78.01926 | 31499 ft | 486 kts | 294° |
| 2026-05-08 14:36 | 8.00415 | 77.98821 | 31768 ft | 485 kts | 294° |
| 2026-05-08 14:36 | 8.01796 | 77.95717 | 32042 ft | 485 kts | 294° |
| 2026-05-08 14:36 | 8.03177 | 77.92613 | 32289 ft | 485 kts | 294° |
| 2026-05-08 14:37 | 8.04554 | 77.89511 | 32520 ft | 484 kts | 294° |
| 2026-05-08 14:37 | 8.05932 | 77.86409 | 32728 ft | 485 kts | 294° |
| 2026-05-08 14:37 | 8.07308 | 77.83305 | 32990 ft | 484 kts | 294° |
| 2026-05-08 14:37 | 8.08681 | 77.80206 | 33233 ft | 483 kts | 294° |
| 2026-05-08 14:38 | 8.10051 | 77.77112 | 33471 ft | 483 kts | 294° |
| 2026-05-08 14:38 | 8.11419 | 77.74026 | 33697 ft | 482 kts | 294° |
| 2026-05-08 14:38 | 8.12787 | 77.70942 | 33921 ft | 481 kts | 294° |
| 2026-05-08 14:38 | 8.14152 | 77.67862 | 34121 ft | 480 kts | 294° |
| 2026-05-08 14:39 | 8.15517 | 77.64784 | 34306 ft | 480 kts | 294° |
| 2026-05-08 14:39 | 8.16868 | 77.61736 | 34482 ft | 480 kts | 294° |
| 2026-05-08 14:39 | 8.18137 | 77.58871 | 34647 ft | 479 kts | 294° |
| 2026-05-08 14:39 | 8.19531 | 77.55723 | 34827 ft | 478 kts | 294° |
| 2026-05-08 14:40 | 8.20906 | 77.52615 | 35009 ft | 478 kts | 294° |
| 2026-05-08 14:40 | 8.22259 | 77.49558 | 35184 ft | 477 kts | 294° |
| 2026-05-08 14:40 | 8.23595 | 77.46537 | 35356 ft | 477 kts | 294° |
| 2026-05-08 14:40 | 8.24965 | 77.43440 | 35525 ft | 476 kts | 294° |
| 2026-05-08 14:41 | 8.26315 | 77.40387 | 35707 ft | 476 kts | 294° |
| 2026-05-08 14:41 | 8.27644 | 77.37381 | 35883 ft | 475 kts | 294° |
| 2026-05-08 14:41 | 8.29006 | 77.34297 | 36060 ft | 474 kts | 294° |
| 2026-05-08 14:41 | 8.30332 | 77.31295 | 36227 ft | 474 kts | 294° |
| 2026-05-08 14:42 | 8.31673 | 77.28260 | 36402 ft | 473 kts | 294° |
| 2026-05-08 14:42 | 8.33013 | 77.25226 | 36581 ft | 473 kts | 294° |
| 2026-05-08 14:42 | 8.34351 | 77.22198 | 36746 ft | 472 kts | 294° |
| 2026-05-08 14:42 | 8.35687 | 77.19171 | 36908 ft | 472 kts | 294° |
| 2026-05-08 14:43 | 8.37020 | 77.16151 | 37078 ft | 471 kts | 294° |
| 2026-05-08 14:43 | 8.38352 | 77.13134 | 37245 ft | 470 kts | 294° |
| 2026-05-08 14:43 | 8.39682 | 77.10121 | 37405 ft | 469 kts | 294° |
| 2026-05-08 14:43 | 8.41010 | 77.07110 | 37559 ft | 469 kts | 294° |
| 2026-05-08 14:44 | 8.42337 | 77.04100 | 37703 ft | 468 kts | 294° |
| 2026-05-08 14:44 | 8.43659 | 77.01101 | 37850 ft | 468 kts | 294° |
| 2026-05-08 14:44 | 8.44982 | 76.98100 | 37972 ft | 468 kts | 294° |
| 2026-05-08 14:44 | 8.46304 | 76.95101 | 38087 ft | 467 kts | 294° |
| 2026-05-08 14:45 | 8.47791 | 76.92181 | 38201 ft | 467 kts | 301° |
| 2026-05-08 14:45 | 8.49589 | 76.89454 | 38302 ft | 466 kts | 307° |
| 2026-05-08 14:45 | 8.53390 | 76.84148 | 38503 ft | 466 kts | 306° |
| 2026-05-08 14:46 | 8.57171 | 76.78831 | 38661 ft | 466 kts | 306° |
| 2026-05-08 14:46 | 8.60952 | 76.73516 | 38788 ft | 466 kts | 306° |
| 2026-05-08 14:47 | 8.64737 | 76.68195 | 38825 ft | 466 kts | 306° |
| 2026-05-08 14:47 | 8.68513 | 76.62885 | 38822 ft | 466 kts | 306° |
| 2026-05-08 14:48 | 8.72294 | 76.57566 | 38822 ft | 466 kts | 306° |
| 2026-05-08 14:48 | 8.76073 | 76.52247 | 38827 ft | 466 kts | 306° |
| 2026-05-08 14:49 | 8.79856 | 76.46920 | 38829 ft | 466 kts | 306° |
| 2026-05-08 14:49 | 8.83613 | 76.41628 | 38828 ft | 466 kts | 306° |
| 2026-05-08 14:50 | 8.87395 | 76.36299 | 38830 ft | 467 kts | 306° |
| 2026-05-08 14:50 | 8.91174 | 76.30972 | 38832 ft | 467 kts | 306° |
| 2026-05-08 14:51 | 8.94345 | 76.26499 | 38836 ft | 467 kts | 306° |
| 2026-05-08 14:51 | 8.98130 | 76.21160 | 38832 ft | 467 kts | 306° |
| 2026-05-08 14:52 | 9.03808 | 76.13145 | 38827 ft | 467 kts | 306° |
| 2026-05-08 14:53 | 9.07595 | 76.07796 | 38827 ft | 468 kts | 306° |
| 2026-05-08 14:53 | 9.11388 | 76.02437 | 38829 ft | 468 kts | 306° |
| 2026-05-08 14:54 | 9.15181 | 75.97078 | 38831 ft | 469 kts | 306° |
| 2026-05-08 14:54 | 9.18981 | 75.91703 | 38832 ft | 469 kts | 307° |
| 2026-05-08 14:55 | 9.22783 | 75.86326 | 38830 ft | 470 kts | 307° |
| 2026-05-08 14:55 | 9.26590 | 75.80939 | 38830 ft | 471 kts | 307° |
| 2026-05-08 14:56 | 9.30400 | 75.75545 | 38834 ft | 471 kts | 307° |
| 2026-05-08 14:56 | 9.34215 | 75.70141 | 38832 ft | 472 kts | 307° |
| 2026-05-08 14:57 | 9.38036 | 75.64726 | 38829 ft | 473 kts | 306° |
| 2026-05-08 14:57 | 9.41864 | 75.59299 | 38836 ft | 473 kts | 307° |
| 2026-05-08 14:58 | 9.45667 | 75.53906 | 38835 ft | 474 kts | 306° |
| 2026-05-08 14:58 | 9.49501 | 75.48467 | 38831 ft | 475 kts | 307° |
| 2026-05-08 14:59 | 9.53335 | 75.43023 | 38830 ft | 475 kts | 306° |
| 2026-05-08 14:59 | 9.59096 | 75.34841 | 38831 ft | 476 kts | 306° |
| 2026-05-08 15:00 | 9.62936 | 75.29383 | 38824 ft | 476 kts | 306° |
| 2026-05-08 15:00 | 9.66780 | 75.23918 | 38823 ft | 476 kts | 306° |
| 2026-05-08 15:01 | 9.70620 | 75.18457 | 38830 ft | 476 kts | 306° |
| 2026-05-08 15:01 | 9.74461 | 75.12991 | 38823 ft | 476 kts | 306° |
| 2026-05-08 15:02 | 9.78304 | 75.07520 | 38823 ft | 477 kts | 306° |
| 2026-05-08 15:02 | 9.82147 | 75.02046 | 38821 ft | 477 kts | 306° |
| 2026-05-08 15:03 | 9.85991 | 74.96567 | 38821 ft | 477 kts | 306° |
| 2026-05-08 15:03 | 9.89838 | 74.91083 | 38820 ft | 477 kts | 306° |
| 2026-05-08 15:04 | 9.93683 | 74.85599 | 38820 ft | 477 kts | 306° |
| 2026-05-08 15:04 | 9.97526 | 74.80116 | 38820 ft | 477 kts | 306° |
| 2026-05-08 15:05 | 10.01371 | 74.74628 | 38819 ft | 477 kts | 306° |
| 2026-05-08 15:05 | 10.05218 | 74.69133 | 38822 ft | 477 kts | 306° |
| 2026-05-08 15:06 | 10.09061 | 74.63642 | 38823 ft | 477 kts | 306° |
| 2026-05-08 15:06 | 10.12904 | 74.58149 | 38820 ft | 477 kts | 306° |
| 2026-05-08 15:07 | 10.16720 | 74.52690 | 38820 ft | 477 kts | 306° |
| 2026-05-08 15:07 | 10.20558 | 74.47198 | 38823 ft | 477 kts | 306° |
| 2026-05-08 15:08 | 10.23777 | 74.42593 | 38823 ft | 477 kts | 306° |
| 2026-05-08 15:08 | 10.28239 | 74.36207 | 38825 ft | 477 kts | 306° |
| 2026-05-08 15:09 | 10.32076 | 74.30710 | 38827 ft | 477 kts | 306° |
| 2026-05-08 15:09 | 10.35907 | 74.25217 | 38827 ft | 477 kts | 306° |
| 2026-05-08 15:10 | 10.39737 | 74.19725 | 38822 ft | 475 kts | 306° |
| 2026-05-08 15:10 | 10.43566 | 74.14275 | 38820 ft | 473 kts | 306° |
| 2026-05-08 15:11 | 10.47413 | 74.08840 | 38823 ft | 473 kts | 306° |
| 2026-05-08 15:11 | 10.51251 | 74.03409 | 38821 ft | 473 kts | 306° |
| 2026-05-08 15:12 | 10.55082 | 73.97980 | 38819 ft | 472 kts | 306° |
| 2026-05-08 15:12 | 10.58902 | 73.92561 | 38818 ft | 472 kts | 306° |
| 2026-05-08 15:13 | 10.62722 | 73.87139 | 38815 ft | 471 kts | 306° |
| 2026-05-08 15:13 | 10.66536 | 73.81725 | 38816 ft | 471 kts | 306° |
| 2026-05-08 15:14 | 10.70346 | 73.76314 | 38820 ft | 470 kts | 306° |
| 2026-05-08 15:14 | 10.74152 | 73.70907 | 38818 ft | 470 kts | 306° |
| 2026-05-08 15:15 | 10.77957 | 73.65500 | 38821 ft | 469 kts | 305° |
| 2026-05-08 15:15 | 10.81750 | 73.60104 | 38824 ft | 469 kts | 305° |
| 2026-05-08 15:16 | 10.85538 | 73.54711 | 38824 ft | 468 kts | 305° |
| 2026-05-08 15:16 | 10.89322 | 73.49323 | 38828 ft | 468 kts | 305° |
| 2026-05-08 15:17 | 10.93101 | 73.43941 | 38826 ft | 467 kts | 305° |
| 2026-05-08 15:17 | 10.96871 | 73.38568 | 38822 ft | 466 kts | 305° |
| 2026-05-08 15:18 | 11.00634 | 73.33203 | 38819 ft | 465 kts | 305° |
| 2026-05-08 15:18 | 11.04361 | 73.27878 | 38817 ft | 465 kts | 305° |
| 2026-05-08 15:19 | 11.08108 | 73.22534 | 38810 ft | 464 kts | 305° |
| 2026-05-08 15:19 | 11.11865 | 73.17176 | 38804 ft | 463 kts | 305° |
| 2026-05-08 15:20 | 11.15604 | 73.11835 | 38804 ft | 463 kts | 305° |
| 2026-05-08 15:20 | 11.19338 | 73.06496 | 38802 ft | 463 kts | 305° |
| 2026-05-08 15:21 | 11.23071 | 73.01158 | 38802 ft | 462 kts | 305° |
| 2026-05-08 15:21 | 11.26799 | 72.95824 | 38804 ft | 462 kts | 305° |
| 2026-05-08 15:22 | 11.30526 | 72.90489 | 38803 ft | 462 kts | 306° |
| 2026-05-08 15:22 | 11.34253 | 72.85150 | 38808 ft | 462 kts | 306° |
| 2026-05-08 15:23 | 11.37980 | 72.79811 | 38811 ft | 462 kts | 306° |
| 2026-05-08 15:23 | 11.41708 | 72.74472 | 38812 ft | 463 kts | 306° |
| 2026-05-08 15:24 | 11.45438 | 72.69126 | 38815 ft | 463 kts | 306° |
| 2026-05-08 15:24 | 11.49140 | 72.63810 | 38818 ft | 463 kts | 306° |
| 2026-05-08 15:25 | 11.52864 | 72.58456 | 38819 ft | 462 kts | 306° |
| 2026-05-08 15:25 | 11.56579 | 72.53115 | 38817 ft | 462 kts | 306° |
| 2026-05-08 15:26 | 11.60296 | 72.47768 | 38822 ft | 462 kts | 306° |
| 2026-05-08 15:26 | 11.64008 | 72.42428 | 38821 ft | 461 kts | 306° |
| 2026-05-08 15:27 | 11.67711 | 72.37098 | 38818 ft | 460 kts | 306° |
| 2026-05-08 15:27 | 11.71401 | 72.31781 | 38819 ft | 459 kts | 306° |
| 2026-05-08 15:28 | 11.75091 | 72.26464 | 38821 ft | 459 kts | 306° |
| 2026-05-08 15:28 | 11.78776 | 72.21155 | 38822 ft | 458 kts | 306° |
| 2026-05-08 15:29 | 11.82456 | 72.15849 | 38821 ft | 458 kts | 306° |
| 2026-05-08 15:29 | 11.86132 | 72.10537 | 38824 ft | 458 kts | 306° |
| 2026-05-08 15:30 | 11.89812 | 72.05225 | 38822 ft | 458 kts | 306° |
| 2026-05-08 15:30 | 11.93494 | 71.99914 | 38823 ft | 458 kts | 307° |
| 2026-05-08 15:31 | 11.97260 | 71.94663 | 38826 ft | 458 kts | 308° |
| 2026-05-08 15:31 | 12.01074 | 71.89450 | 38823 ft | 459 kts | 308° |
| 2026-05-08 15:32 | 12.04880 | 71.84216 | 38821 ft | 459 kts | 308° |
| 2026-05-08 15:32 | 12.08682 | 71.78971 | 38815 ft | 460 kts | 307° |
| 2026-05-08 15:33 | 12.12488 | 71.73716 | 38812 ft | 460 kts | 307° |
| 2026-05-08 15:33 | 12.16295 | 71.68455 | 38812 ft | 461 kts | 307° |
| 2026-05-08 15:34 | 12.20109 | 71.63185 | 38814 ft | 462 kts | 307° |
| 2026-05-08 15:34 | 12.23930 | 71.57901 | 38814 ft | 462 kts | 307° |
| 2026-05-08 15:35 | 12.27757 | 71.52605 | 38826 ft | 463 kts | 307° |
| 2026-05-08 15:35 | 12.31577 | 71.47312 | 38826 ft | 462 kts | 306° |
| 2026-05-08 15:36 | 12.34749 | 71.42915 | 38826 ft | 462 kts | 306° |
| 2026-05-08 15:36 | 12.39209 | 71.36736 | 38825 ft | 461 kts | 306° |
| 2026-05-08 15:37 | 12.42365 | 71.32361 | 38826 ft | 460 kts | 306° |
| 2026-05-08 15:37 | 12.46156 | 71.27098 | 38826 ft | 458 kts | 306° |
| 2026-05-08 15:38 | 12.49934 | 71.21854 | 38827 ft | 457 kts | 306° |
| 2026-05-08 15:38 | 12.53705 | 71.16625 | 38830 ft | 456 kts | 306° |
| 2026-05-08 15:39 | 12.57464 | 71.11409 | 38827 ft | 455 kts | 306° |
| 2026-05-08 15:39 | 12.61215 | 71.06200 | 38828 ft | 454 kts | 306° |
| 2026-05-08 15:40 | 12.64956 | 71.01003 | 38823 ft | 453 kts | 306° |
| 2026-05-08 15:40 | 12.68694 | 70.95805 | 38823 ft | 453 kts | 306° |
| 2026-05-08 15:41 | 12.72428 | 70.90610 | 38816 ft | 453 kts | 306° |
| 2026-05-08 15:41 | 12.76133 | 70.85451 | 38817 ft | 453 kts | 306° |
| 2026-05-08 15:42 | 12.79861 | 70.80252 | 38820 ft | 453 kts | 306° |
| 2026-05-08 15:42 | 12.83592 | 70.75054 | 38820 ft | 453 kts | 306° |
| 2026-05-08 15:43 | 12.87326 | 70.69848 | 38817 ft | 453 kts | 306° |
| 2026-05-08 15:43 | 12.91061 | 70.64640 | 38823 ft | 454 kts | 306° |
| 2026-05-08 15:44 | 12.94802 | 70.59423 | 38824 ft | 455 kts | 306° |
| 2026-05-08 15:44 | 12.98550 | 70.54194 | 38833 ft | 455 kts | 306° |
| 2026-05-08 15:45 | 13.02301 | 70.48953 | 38831 ft | 456 kts | 306° |
| 2026-05-08 15:45 | 13.06059 | 70.43699 | 38838 ft | 457 kts | 305° |
| 2026-05-08 15:46 | 13.09807 | 70.38421 | 38841 ft | 458 kts | 305° |
| 2026-05-08 15:46 | 13.13559 | 70.33131 | 38843 ft | 459 kts | 305° |
| 2026-05-08 15:47 | 13.17313 | 70.27836 | 38841 ft | 459 kts | 305° |
| 2026-05-08 15:47 | 13.21068 | 70.22541 | 38842 ft | 459 kts | 305° |
| 2026-05-08 15:48 | 13.26708 | 70.14580 | 38847 ft | 460 kts | 305° |
| 2026-05-08 15:49 | 13.30469 | 70.09268 | 38847 ft | 460 kts | 305° |
| 2026-05-08 15:49 | 13.34233 | 70.03949 | 38845 ft | 460 kts | 305° |
| 2026-05-08 15:50 | 13.37990 | 69.98635 | 38847 ft | 459 kts | 305° |
| 2026-05-08 15:50 | 13.41742 | 69.93324 | 38852 ft | 459 kts | 305° |
| 2026-05-08 15:51 | 13.45486 | 69.88023 | 38848 ft | 459 kts | 306° |
| 2026-05-08 15:51 | 13.49230 | 69.82719 | 38854 ft | 458 kts | 306° |
| 2026-05-08 15:52 | 13.52968 | 69.77419 | 38855 ft | 458 kts | 306° |
| 2026-05-08 15:52 | 13.56703 | 69.72119 | 38853 ft | 458 kts | 306° |
| 2026-05-08 15:53 | 13.60439 | 69.66815 | 38854 ft | 458 kts | 306° |
| 2026-05-08 15:53 | 13.64175 | 69.61509 | 38856 ft | 458 kts | 306° |
| 2026-05-08 15:54 | 13.67908 | 69.56203 | 38858 ft | 458 kts | 306° |
| 2026-05-08 15:54 | 13.71636 | 69.50902 | 38852 ft | 457 kts | 306° |
| 2026-05-08 15:55 | 13.75359 | 69.45604 | 38854 ft | 457 kts | 306° |
| 2026-05-08 15:55 | 13.80939 | 69.37660 | 38856 ft | 456 kts | 306° |
| 2026-05-08 15:56 | 13.84654 | 69.32366 | 38856 ft | 456 kts | 306° |
| 2026-05-08 15:56 | 13.88365 | 69.27073 | 38858 ft | 456 kts | 306° |
| 2026-05-08 15:57 | 13.92049 | 69.21813 | 38861 ft | 456 kts | 306° |
| 2026-05-08 15:57 | 13.95750 | 69.16527 | 38862 ft | 455 kts | 306° |
| 2026-05-08 15:58 | 13.99453 | 69.11239 | 38867 ft | 455 kts | 306° |
| 2026-05-08 15:58 | 14.03151 | 69.05954 | 38863 ft | 455 kts | 306° |
| 2026-05-08 15:59 | 14.06846 | 69.00670 | 38867 ft | 454 kts | 306° |
| 2026-05-08 15:59 | 14.10544 | 68.95395 | 38862 ft | 454 kts | 306° |
| 2026-05-08 16:00 | 14.14261 | 68.90142 | 38858 ft | 454 kts | 306° |
| 2026-05-08 16:00 | 14.17979 | 68.84884 | 38866 ft | 453 kts | 306° |
| 2026-05-08 16:01 | 14.21689 | 68.79630 | 38866 ft | 453 kts | 306° |
| 2026-05-08 16:01 | 14.25395 | 68.74375 | 38861 ft | 453 kts | 306° |
| 2026-05-08 16:02 | 14.29097 | 68.69121 | 38864 ft | 453 kts | 306° |
| 2026-05-08 16:02 | 14.32797 | 68.63867 | 38868 ft | 453 kts | 306° |
| 2026-05-08 16:03 | 14.36495 | 68.58612 | 38863 ft | 453 kts | 306° |
| 2026-05-08 16:03 | 14.40194 | 68.53355 | 38865 ft | 453 kts | 306° |
| 2026-05-08 16:04 | 14.43891 | 68.48095 | 38867 ft | 453 kts | 306° |
| 2026-05-08 16:04 | 14.47585 | 68.42836 | 38868 ft | 453 kts | 306° |
| 2026-05-08 16:05 | 14.51279 | 68.37574 | 38869 ft | 453 kts | 306° |
| 2026-05-08 16:05 | 14.54975 | 68.32306 | 38871 ft | 453 kts | 306° |
| 2026-05-08 16:06 | 14.58671 | 68.27034 | 38876 ft | 453 kts | 306° |
| 2026-05-08 16:06 | 14.62365 | 68.21762 | 38878 ft | 453 kts | 305° |
| 2026-05-08 16:07 | 14.66058 | 68.16488 | 38879 ft | 453 kts | 305° |
| 2026-05-08 16:07 | 14.69753 | 68.11206 | 38882 ft | 453 kts | 305° |
| 2026-05-08 16:08 | 14.73420 | 68.05962 | 38882 ft | 453 kts | 305° |
| 2026-05-08 16:08 | 14.77115 | 68.00675 | 38878 ft | 454 kts | 305° |
| 2026-05-08 16:09 | 14.80207 | 67.96247 | 38879 ft | 454 kts | 305° |
| 2026-05-08 16:09 | 14.84497 | 67.90101 | 38879 ft | 454 kts | 305° |
| 2026-05-08 16:10 | 14.88186 | 67.84810 | 38884 ft | 454 kts | 305° |
| 2026-05-08 16:10 | 14.91874 | 67.79519 | 38886 ft | 454 kts | 305° |
| 2026-05-08 16:11 | 14.95562 | 67.74223 | 38886 ft | 454 kts | 305° |
| 2026-05-08 16:11 | 14.99247 | 67.68929 | 38887 ft | 454 kts | 305° |
| 2026-05-08 16:12 | 15.02932 | 67.63629 | 38884 ft | 454 kts | 305° |
| 2026-05-08 16:12 | 15.06613 | 67.58334 | 38883 ft | 454 kts | 305° |
| 2026-05-08 16:13 | 15.10298 | 67.53029 | 38883 ft | 454 kts | 305° |
| 2026-05-08 16:13 | 15.13979 | 67.47726 | 38883 ft | 454 kts | 305° |
| 2026-05-08 16:14 | 15.17662 | 67.42416 | 38884 ft | 454 kts | 305° |
| 2026-05-08 16:14 | 15.21342 | 67.37106 | 38887 ft | 454 kts | 305° |
| 2026-05-08 16:15 | 15.25023 | 67.31791 | 38886 ft | 454 kts | 305° |
| 2026-05-08 16:15 | 15.28706 | 67.26472 | 38886 ft | 454 kts | 305° |
| 2026-05-08 16:16 | 15.32386 | 67.21151 | 38890 ft | 455 kts | 305° |
| 2026-05-08 16:16 | 15.36070 | 67.15821 | 38894 ft | 455 kts | 305° |
| 2026-05-08 16:17 | 15.39131 | 67.11391 | 38893 ft | 455 kts | 305° |
| 2026-05-08 16:17 | 15.43434 | 67.05158 | 38896 ft | 455 kts | 305° |
| 2026-05-08 16:18 | 15.47118 | 66.99816 | 38896 ft | 455 kts | 305° |
| 2026-05-08 16:18 | 15.50799 | 66.94476 | 38899 ft | 455 kts | 305° |
| 2026-05-08 16:19 | 15.54455 | 66.89168 | 38897 ft | 455 kts | 305° |
| 2026-05-08 16:19 | 15.58159 | 66.83790 | 38900 ft | 455 kts | 305° |
| 2026-05-08 16:20 | 15.61864 | 66.78466 | 38901 ft | 455 kts | 306° |
| 2026-05-08 16:20 | 15.65591 | 66.73161 | 38904 ft | 455 kts | 305° |
| 2026-05-08 16:21 | 15.69315 | 66.67848 | 38905 ft | 455 kts | 305° |
| 2026-05-08 16:21 | 15.73031 | 66.62535 | 38900 ft | 455 kts | 305° |
| 2026-05-08 16:22 | 15.76116 | 66.58122 | 38899 ft | 454 kts | 305° |
| 2026-05-08 16:22 | 15.80424 | 66.51953 | 38899 ft | 454 kts | 305° |
| 2026-05-08 16:23 | 15.84126 | 66.46647 | 38898 ft | 454 kts | 305° |
| 2026-05-08 16:23 | 15.87825 | 66.41343 | 38894 ft | 453 kts | 305° |
| 2026-05-08 16:24 | 15.91521 | 66.36039 | 38890 ft | 453 kts | 305° |
| 2026-05-08 16:24 | 15.95214 | 66.30735 | 38895 ft | 453 kts | 305° |
| 2026-05-08 16:25 | 15.98305 | 66.26294 | 38892 ft | 453 kts | 305° |
| 2026-05-08 16:25 | 16.01991 | 66.20993 | 38893 ft | 452 kts | 305° |
| 2026-05-08 16:26 | 16.05650 | 66.15727 | 38891 ft | 452 kts | 305° |
| 2026-05-08 16:26 | 16.09330 | 66.10428 | 38894 ft | 452 kts | 305° |
| 2026-05-08 16:27 | 16.13011 | 66.05123 | 38892 ft | 452 kts | 305° |
| 2026-05-08 16:27 | 16.16691 | 65.99816 | 38895 ft | 452 kts | 305° |
| 2026-05-08 16:28 | 16.20367 | 65.94510 | 38894 ft | 452 kts | 305° |
| 2026-05-08 16:28 | 16.24045 | 65.89198 | 38896 ft | 452 kts | 305° |
| 2026-05-08 16:29 | 16.27722 | 65.83884 | 38896 ft | 452 kts | 305° |
| 2026-05-08 16:29 | 16.31397 | 65.78569 | 38894 ft | 452 kts | 305° |
| 2026-05-08 16:30 | 16.35070 | 65.73252 | 38903 ft | 452 kts | 305° |
| 2026-05-08 16:30 | 16.38744 | 65.67930 | 38903 ft | 452 kts | 305° |
| 2026-05-08 16:31 | 16.42416 | 65.62607 | 38903 ft | 452 kts | 305° |
| 2026-05-08 16:31 | 16.46088 | 65.57280 | 38902 ft | 452 kts | 305° |
| 2026-05-08 16:32 | 16.49756 | 65.51956 | 38897 ft | 452 kts | 305° |
| 2026-05-08 16:32 | 16.53416 | 65.46638 | 38897 ft | 451 kts | 305° |
| 2026-05-08 16:33 | 16.57074 | 65.41319 | 38895 ft | 452 kts | 305° |
| 2026-05-08 16:33 | 16.60732 | 65.35995 | 38893 ft | 452 kts | 305° |
| 2026-05-08 16:34 | 16.64386 | 65.30675 | 38892 ft | 451 kts | 305° |
| 2026-05-08 16:34 | 16.68039 | 65.25352 | 38887 ft | 451 kts | 305° |
| 2026-05-08 16:35 | 16.71684 | 65.20036 | 38883 ft | 451 kts | 305° |
| 2026-05-08 16:35 | 16.75307 | 65.14749 | 38884 ft | 450 kts | 305° |
| 2026-05-08 16:36 | 16.78947 | 65.09432 | 38886 ft | 450 kts | 304° |
| 2026-05-08 16:36 | 16.82585 | 65.04111 | 38865 ft | 450 kts | 306° |
| 2026-05-08 16:37 | 16.86219 | 64.98790 | 38869 ft | 450 kts | 306° |
| 2026-05-08 16:37 | 16.89855 | 64.93468 | 38871 ft | 450 kts | 306° |
| 2026-05-08 16:38 | 16.93494 | 64.88138 | 38879 ft | 451 kts | 306° |
| 2026-05-08 16:38 | 16.97138 | 64.82796 | 38883 ft | 452 kts | 306° |
| 2026-05-08 16:39 | 17.00785 | 64.77445 | 38887 ft | 453 kts | 306° |
| 2026-05-08 16:39 | 17.04439 | 64.72079 | 38893 ft | 453 kts | 306° |
| 2026-05-08 16:40 | 17.08096 | 64.66706 | 38896 ft | 454 kts | 306° |
| 2026-05-08 16:40 | 17.11755 | 64.61323 | 38892 ft | 454 kts | 306° |
| 2026-05-08 16:41 | 17.15405 | 64.55952 | 38892 ft | 453 kts | 305° |
| 2026-05-08 16:42 | 17.20880 | 64.47886 | 38893 ft | 453 kts | 305° |
| 2026-05-08 16:42 | 17.24529 | 64.42507 | 38895 ft | 453 kts | 305° |
| 2026-05-08 16:43 | 17.28154 | 64.37161 | 38895 ft | 453 kts | 305° |
| 2026-05-08 16:43 | 17.31865 | 64.31825 | 38895 ft | 453 kts | 307° |
| 2026-05-08 16:44 | 17.35631 | 64.26526 | 38896 ft | 454 kts | 307° |
| 2026-05-08 16:44 | 17.39384 | 64.21221 | 38894 ft | 454 kts | 307° |
| 2026-05-08 16:45 | 17.43129 | 64.15905 | 38894 ft | 454 kts | 306° |
| 2026-05-08 16:45 | 17.46875 | 64.10584 | 38894 ft | 454 kts | 306° |
| 2026-05-08 16:46 | 17.50618 | 64.05260 | 38892 ft | 454 kts | 306° |
| 2026-05-08 16:46 | 17.54361 | 63.99934 | 38895 ft | 454 kts | 306° |
| 2026-05-08 16:47 | 17.58105 | 63.94602 | 38897 ft | 454 kts | 306° |
| 2026-05-08 16:47 | 17.61845 | 63.89271 | 38896 ft | 454 kts | 306° |
| 2026-05-08 16:48 | 17.65583 | 63.83939 | 38893 ft | 454 kts | 306° |
| 2026-05-08 16:48 | 17.69322 | 63.78601 | 38895 ft | 454 kts | 306° |
| 2026-05-08 16:49 | 17.73061 | 63.73258 | 38893 ft | 454 kts | 306° |
| 2026-05-08 16:49 | 17.76799 | 63.67913 | 38892 ft | 454 kts | 306° |
| 2026-05-08 16:50 | 17.80537 | 63.62564 | 38889 ft | 455 kts | 306° |
| 2026-05-08 16:50 | 17.84276 | 63.57208 | 38890 ft | 455 kts | 306° |
| 2026-05-08 16:51 | 17.88012 | 63.51853 | 38893 ft | 455 kts | 306° |
| 2026-05-08 16:51 | 17.91750 | 63.46491 | 38895 ft | 455 kts | 306° |
| 2026-05-08 16:52 | 17.95489 | 63.41123 | 38890 ft | 455 kts | 306° |
| 2026-05-08 16:52 | 17.99226 | 63.35752 | 38892 ft | 455 kts | 306° |
| 2026-05-08 16:53 | 18.04833 | 63.27687 | 38894 ft | 456 kts | 306° |
| 2026-05-08 16:53 | 18.08569 | 63.22308 | 38896 ft | 456 kts | 306° |
| 2026-05-08 16:54 | 18.12305 | 63.16923 | 38895 ft | 456 kts | 306° |
| 2026-05-08 16:54 | 18.16040 | 63.11537 | 38894 ft | 456 kts | 306° |
| 2026-05-08 16:55 | 18.19773 | 63.06148 | 38896 ft | 456 kts | 306° |
| 2026-05-08 16:55 | 18.23505 | 63.00757 | 38889 ft | 456 kts | 306° |
| 2026-05-08 16:56 | 18.27236 | 62.95363 | 38892 ft | 456 kts | 306° |
| 2026-05-08 16:56 | 18.30941 | 62.90001 | 38888 ft | 456 kts | 306° |
| 2026-05-08 16:57 | 18.34671 | 62.84599 | 38888 ft | 456 kts | 306° |
| 2026-05-08 16:57 | 18.38401 | 62.79192 | 38886 ft | 456 kts | 306° |
| 2026-05-08 16:58 | 18.42126 | 62.73788 | 38886 ft | 456 kts | 306° |
| 2026-05-08 16:58 | 18.45851 | 62.68379 | 38884 ft | 456 kts | 305° |
| 2026-05-08 16:59 | 18.49577 | 62.62965 | 38884 ft | 456 kts | 305° |
| 2026-05-08 16:59 | 18.53302 | 62.57547 | 38882 ft | 457 kts | 305° |
| 2026-05-08 17:00 | 18.57029 | 62.52123 | 38881 ft | 457 kts | 305° |
| 2026-05-08 17:00 | 18.60740 | 62.46694 | 38883 ft | 457 kts | 305° |
| 2026-05-08 17:01 | 18.64429 | 62.41230 | 38885 ft | 457 kts | 305° |
| 2026-05-08 17:01 | 18.68122 | 62.35767 | 38884 ft | 457 kts | 305° |
| 2026-05-08 17:02 | 18.71816 | 62.30304 | 38883 ft | 458 kts | 304° |
| 2026-05-08 17:02 | 18.75511 | 62.24833 | 38883 ft | 458 kts | 304° |
| 2026-05-08 17:03 | 18.79211 | 62.19352 | 38882 ft | 458 kts | 304° |
| 2026-05-08 17:03 | 18.82907 | 62.13872 | 38883 ft | 459 kts | 304° |
| 2026-05-08 17:04 | 18.86606 | 62.08382 | 38883 ft | 459 kts | 304° |
| 2026-05-08 17:04 | 18.90298 | 62.02897 | 38876 ft | 458 kts | 304° |
| 2026-05-08 17:05 | 18.93993 | 61.97403 | 38878 ft | 459 kts | 304° |
| 2026-05-08 17:05 | 18.97688 | 61.91904 | 38876 ft | 459 kts | 304° |
| 2026-05-08 17:06 | 19.01379 | 61.86406 | 38877 ft | 459 kts | 304° |
| 2026-05-08 17:06 | 19.05069 | 61.80907 | 38877 ft | 459 kts | 304° |
| 2026-05-08 17:07 | 19.08758 | 61.75401 | 38876 ft | 459 kts | 304° |
| 2026-05-08 17:07 | 19.12450 | 61.69887 | 38875 ft | 459 kts | 304° |
| 2026-05-08 17:08 | 19.16137 | 61.64377 | 38875 ft | 459 kts | 304° |
| 2026-05-08 17:08 | 19.19799 | 61.58900 | 38876 ft | 459 kts | 304° |
| 2026-05-08 17:09 | 19.23506 | 61.53348 | 38875 ft | 459 kts | 304° |
| 2026-05-08 17:09 | 19.27159 | 61.47873 | 38875 ft | 459 kts | 304° |
| 2026-05-08 17:10 | 19.30839 | 61.42352 | 38871 ft | 459 kts | 304° |
| 2026-05-08 17:10 | 19.34511 | 61.36837 | 38871 ft | 458 kts | 304° |
| 2026-05-08 17:11 | 19.38152 | 61.31364 | 38869 ft | 451 kts | 304° |
| 2026-05-08 17:11 | 19.41777 | 61.25913 | 38866 ft | 454 kts | 304° |
| 2026-05-08 17:12 | 19.44793 | 61.21372 | 38865 ft | 453 kts | 304° |
| 2026-05-08 17:12 | 19.48446 | 61.15870 | 38867 ft | 453 kts | 304° |
| 2026-05-08 17:13 | 19.52071 | 61.10403 | 38865 ft | 453 kts | 304° |
| 2026-05-08 17:13 | 19.55670 | 61.04971 | 38864 ft | 453 kts | 304° |
| 2026-05-08 17:14 | 19.59291 | 60.99499 | 38865 ft | 453 kts | 304° |
| 2026-05-08 17:14 | 19.62910 | 60.94027 | 38864 ft | 453 kts | 304° |
| 2026-05-08 17:15 | 19.66524 | 60.88557 | 38865 ft | 453 kts | 304° |
| 2026-05-08 17:15 | 19.70137 | 60.83086 | 38861 ft | 453 kts | 304° |
| 2026-05-08 17:16 | 19.73747 | 60.77611 | 38859 ft | 453 kts | 304° |
| 2026-05-08 17:16 | 19.77356 | 60.72133 | 38858 ft | 453 kts | 304° |
| 2026-05-08 17:17 | 19.80962 | 60.66656 | 38860 ft | 452 kts | 304° |
| 2026-05-08 17:17 | 19.84566 | 60.61177 | 38861 ft | 452 kts | 304° |
| 2026-05-08 17:18 | 19.88165 | 60.55699 | 38861 ft | 452 kts | 304° |
| 2026-05-08 17:18 | 19.91764 | 60.50217 | 38860 ft | 452 kts | 304° |
| 2026-05-08 17:19 | 19.95360 | 60.44734 | 38855 ft | 452 kts | 304° |
| 2026-05-08 17:19 | 19.98953 | 60.39252 | 38857 ft | 452 kts | 304° |
| 2026-05-08 17:20 | 20.02616 | 60.33828 | 38850 ft | 452 kts | 309° |
| 2026-05-08 17:20 | 20.07076 | 60.29111 | 38849 ft | 454 kts | 320° |
| 2026-05-08 17:21 | 20.12327 | 60.25373 | 38849 ft | 455 kts | 328° |
| 2026-05-08 17:21 | 20.17765 | 60.21929 | 38846 ft | 455 kts | 328° |
| 2026-05-08 17:22 | 20.23198 | 60.18473 | 38849 ft | 455 kts | 328° |
| 2026-05-08 17:22 | 20.28633 | 60.15019 | 38847 ft | 455 kts | 328° |
| 2026-05-08 17:23 | 20.34032 | 60.11586 | 38849 ft | 455 kts | 328° |
| 2026-05-08 17:23 | 20.39506 | 60.08105 | 38843 ft | 455 kts | 328° |
| 2026-05-08 17:24 | 20.44941 | 60.04646 | 38849 ft | 455 kts | 327° |
| 2026-05-08 17:24 | 20.50340 | 60.01207 | 38846 ft | 455 kts | 327° |
| 2026-05-08 17:25 | 20.55810 | 59.97718 | 38840 ft | 455 kts | 327° |
| 2026-05-08 17:25 | 20.61243 | 59.94248 | 38842 ft | 455 kts | 327° |
| 2026-05-08 17:26 | 20.66637 | 59.90802 | 38839 ft | 455 kts | 327° |
| 2026-05-08 17:26 | 20.72063 | 59.87332 | 38841 ft | 455 kts | 327° |
| 2026-05-08 17:27 | 20.77488 | 59.83864 | 38835 ft | 454 kts | 327° |
| 2026-05-08 17:27 | 20.82910 | 59.80391 | 38838 ft | 454 kts | 327° |
| 2026-05-08 17:28 | 20.88324 | 59.76919 | 38837 ft | 454 kts | 327° |
| 2026-05-08 17:28 | 20.93738 | 59.73447 | 38831 ft | 453 kts | 327° |
| 2026-05-08 17:29 | 20.98558 | 59.69201 | 38826 ft | 448 kts | 309° |
| 2026-05-08 17:29 | 21.01887 | 59.63646 | 38821 ft | 442 kts | 291° |
| 2026-05-08 17:30 | 21.03835 | 59.57413 | 38826 ft | 442 kts | 286° |
| 2026-05-08 17:30 | 21.05684 | 59.51124 | 38827 ft | 443 kts | 286° |
| 2026-05-08 17:31 | 21.07528 | 59.44844 | 38828 ft | 442 kts | 286° |
| 2026-05-08 17:31 | 21.09367 | 59.38562 | 38821 ft | 442 kts | 286° |
| 2026-05-08 17:32 | 21.11200 | 59.32280 | 38824 ft | 443 kts | 286° |
| 2026-05-08 17:32 | 21.13037 | 59.25978 | 38818 ft | 442 kts | 286° |
| 2026-05-08 17:33 | 21.14866 | 59.19693 | 38819 ft | 443 kts | 286° |
| 2026-05-08 17:33 | 21.16699 | 59.13385 | 38829 ft | 443 kts | 286° |
| 2026-05-08 17:34 | 21.18529 | 59.07079 | 38826 ft | 443 kts | 285° |
| 2026-05-08 17:34 | 21.20346 | 59.00811 | 38817 ft | 443 kts | 285° |
| 2026-05-08 17:35 | 21.22173 | 58.94493 | 38817 ft | 444 kts | 285° |
| 2026-05-08 17:35 | 21.23999 | 58.88169 | 38821 ft | 444 kts | 285° |
| 2026-05-08 17:36 | 21.25825 | 58.81835 | 38831 ft | 445 kts | 285° |
| 2026-05-08 17:36 | 21.27652 | 58.75491 | 38832 ft | 445 kts | 285° |
| 2026-05-08 17:37 | 21.29476 | 58.69142 | 38835 ft | 446 kts | 285° |
| 2026-05-08 17:37 | 21.31300 | 58.62784 | 38839 ft | 446 kts | 285° |
| 2026-05-08 17:38 | 21.33124 | 58.56417 | 38845 ft | 447 kts | 285° |
| 2026-05-08 17:38 | 21.34944 | 58.50055 | 38834 ft | 445 kts | 285° |
| 2026-05-08 17:39 | 21.36755 | 58.43713 | 38835 ft | 445 kts | 285° |
| 2026-05-08 17:39 | 21.38562 | 58.37373 | 38830 ft | 445 kts | 285° |
| 2026-05-08 17:40 | 21.40369 | 58.31027 | 38832 ft | 445 kts | 285° |
| 2026-05-08 17:40 | 21.42172 | 58.24685 | 38831 ft | 444 kts | 285° |
| 2026-05-08 17:41 | 21.43972 | 58.18341 | 38821 ft | 444 kts | 285° |
| 2026-05-08 17:41 | 21.45767 | 58.12007 | 38822 ft | 444 kts | 285° |
| 2026-05-08 17:42 | 21.47560 | 58.05669 | 38827 ft | 443 kts | 285° |
| 2026-05-08 17:42 | 21.49349 | 57.99334 | 38825 ft | 443 kts | 284° |
| 2026-05-08 17:43 | 21.51135 | 57.93000 | 38820 ft | 443 kts | 284° |
| 2026-05-08 17:43 | 21.52918 | 57.86666 | 38826 ft | 443 kts | 284° |
| 2026-05-08 17:44 | 21.54701 | 57.80326 | 38829 ft | 443 kts | 284° |
| 2026-05-08 17:44 | 21.56479 | 57.73990 | 38829 ft | 443 kts | 284° |
| 2026-05-08 17:45 | 21.58256 | 57.67648 | 38833 ft | 443 kts | 284° |
| 2026-05-08 17:45 | 21.60029 | 57.61302 | 38838 ft | 443 kts | 284° |
| 2026-05-08 17:46 | 21.61799 | 57.54952 | 38837 ft | 444 kts | 284° |
| 2026-05-08 17:46 | 21.63567 | 57.48599 | 38833 ft | 444 kts | 284° |
| 2026-05-08 17:47 | 21.65334 | 57.42242 | 38837 ft | 444 kts | 284° |
| 2026-05-08 17:47 | 21.66799 | 57.36961 | 38836 ft | 444 kts | 284° |
| 2026-05-08 17:48 | 21.68857 | 57.29535 | 38841 ft | 444 kts | 284° |
| 2026-05-08 17:48 | 21.70617 | 57.23172 | 38837 ft | 444 kts | 284° |
| 2026-05-08 17:49 | 21.72372 | 57.16814 | 38836 ft | 443 kts | 284° |
| 2026-05-08 17:49 | 21.74124 | 57.10453 | 38839 ft | 443 kts | 284° |
| 2026-05-08 17:50 | 21.75871 | 57.04094 | 38836 ft | 443 kts | 284° |
| 2026-05-08 17:50 | 21.77615 | 56.97740 | 38836 ft | 443 kts | 284° |
| 2026-05-08 17:51 | 21.79358 | 56.91381 | 38831 ft | 443 kts | 284° |
| 2026-05-08 17:51 | 21.81095 | 56.85027 | 38832 ft | 443 kts | 284° |
| 2026-05-08 17:52 | 21.82830 | 56.78672 | 38831 ft | 442 kts | 284° |
| 2026-05-08 17:53 | 21.85426 | 56.69147 | 38834 ft | 442 kts | 284° |
| 2026-05-08 17:53 | 21.87154 | 56.62796 | 38833 ft | 442 kts | 284° |
| 2026-05-08 17:54 | 21.88878 | 56.56448 | 38833 ft | 442 kts | 284° |
| 2026-05-08 17:54 | 21.90600 | 56.50100 | 38832 ft | 441 kts | 284° |
| 2026-05-08 17:55 | 21.92317 | 56.43758 | 38832 ft | 441 kts | 284° |
| 2026-05-08 17:55 | 21.94033 | 56.37406 | 38832 ft | 441 kts | 284° |
| 2026-05-08 17:56 | 21.95744 | 56.31063 | 38828 ft | 441 kts | 284° |
| 2026-05-08 17:56 | 21.97520 | 56.24781 | 38827 ft | 443 kts | 290° |
| 2026-05-08 17:57 | 22.00115 | 56.18759 | 38827 ft | 443 kts | 292° |
| 2026-05-08 17:57 | 22.02303 | 56.13722 | 38826 ft | 444 kts | 292° |
| 2026-05-08 17:58 | 22.04933 | 56.07709 | 38825 ft | 444 kts | 292° |
| 2026-05-08 17:58 | 22.07576 | 56.01678 | 38823 ft | 444 kts | 292° |
| 2026-05-08 17:59 | 22.10209 | 55.95662 | 38830 ft | 444 kts | 292° |
| 2026-05-08 17:59 | 22.12842 | 55.89639 | 38825 ft | 444 kts | 292° |
| 2026-05-08 18:00 | 22.15473 | 55.83614 | 38825 ft | 444 kts | 292° |
| 2026-05-08 18:00 | 22.19416 | 55.74569 | 38828 ft | 444 kts | 292° |
| 2026-05-08 18:01 | 22.22042 | 55.68532 | 38831 ft | 444 kts | 292° |
| 2026-05-08 18:01 | 22.24665 | 55.62491 | 38827 ft | 445 kts | 292° |
| 2026-05-08 18:02 | 22.27271 | 55.56484 | 38824 ft | 445 kts | 292° |
| 2026-05-08 18:02 | 22.29892 | 55.50437 | 38827 ft | 445 kts | 292° |
| 2026-05-08 18:03 | 22.32510 | 55.44388 | 38834 ft | 445 kts | 292° |
| 2026-05-08 18:03 | 22.35125 | 55.38336 | 38831 ft | 444 kts | 292° |
| 2026-05-08 18:04 | 22.37736 | 55.32288 | 38828 ft | 444 kts | 292° |
| 2026-05-08 18:04 | 22.40345 | 55.26236 | 38830 ft | 444 kts | 292° |
| 2026-05-08 18:05 | 22.42948 | 55.20192 | 38834 ft | 444 kts | 291° |
| 2026-05-08 18:05 | 22.45547 | 55.14148 | 38829 ft | 443 kts | 291° |
| 2026-05-08 18:06 | 22.48143 | 55.08105 | 38828 ft | 443 kts | 291° |
| 2026-05-08 18:06 | 22.50732 | 55.02069 | 38833 ft | 442 kts | 291° |
| 2026-05-08 18:07 | 22.53318 | 54.96034 | 38825 ft | 442 kts | 291° |
| 2026-05-08 18:07 | 22.55898 | 54.90006 | 38826 ft | 441 kts | 291° |
| 2026-05-08 18:08 | 22.58472 | 54.83984 | 38828 ft | 441 kts | 291° |
| 2026-05-08 18:08 | 22.61039 | 54.77970 | 38823 ft | 440 kts | 291° |
| 2026-05-08 18:09 | 22.63604 | 54.71956 | 38827 ft | 440 kts | 291° |
| 2026-05-08 18:09 | 22.66161 | 54.65951 | 38826 ft | 439 kts | 291° |
| 2026-05-08 18:10 | 22.68718 | 54.59938 | 38826 ft | 439 kts | 291° |
| 2026-05-08 18:10 | 22.71271 | 54.53928 | 38826 ft | 439 kts | 291° |
| 2026-05-08 18:11 | 22.73820 | 54.47919 | 38825 ft | 439 kts | 291° |
| 2026-05-08 18:11 | 22.76367 | 54.41911 | 38832 ft | 439 kts | 291° |
| 2026-05-08 18:12 | 22.78910 | 54.35901 | 38830 ft | 439 kts | 291° |
| 2026-05-08 18:12 | 22.81451 | 54.29887 | 38838 ft | 439 kts | 291° |
| 2026-05-08 18:13 | 22.83991 | 54.23870 | 38838 ft | 439 kts | 291° |
| 2026-05-08 18:13 | 22.86513 | 54.17888 | 38835 ft | 439 kts | 291° |
| 2026-05-08 18:14 | 22.89050 | 54.11863 | 38839 ft | 439 kts | 291° |
| 2026-05-08 18:14 | 22.91584 | 54.05836 | 38846 ft | 439 kts | 291° |
| 2026-05-08 18:15 | 22.94115 | 53.99809 | 38843 ft | 439 kts | 291° |
| 2026-05-08 18:15 | 22.96646 | 53.93775 | 38852 ft | 439 kts | 291° |
| 2026-05-08 18:16 | 22.99173 | 53.87745 | 38851 ft | 439 kts | 291° |
| 2026-05-08 18:16 | 23.01698 | 53.81708 | 38856 ft | 439 kts | 291° |
| 2026-05-08 18:17 | 23.04217 | 53.75679 | 38846 ft | 439 kts | 291° |
| 2026-05-08 18:17 | 23.06734 | 53.69648 | 38854 ft | 438 kts | 291° |
| 2026-05-08 18:18 | 23.09247 | 53.63618 | 38846 ft | 438 kts | 290° |
| 2026-05-08 18:18 | 23.11753 | 53.57599 | 38859 ft | 437 kts | 290° |
| 2026-05-08 18:19 | 23.14256 | 53.51577 | 38851 ft | 437 kts | 290° |
| 2026-05-08 18:19 | 23.16753 | 53.45561 | 38850 ft | 437 kts | 290° |
| 2026-05-08 18:20 | 23.19247 | 53.39547 | 38855 ft | 436 kts | 290° |
| 2026-05-08 18:20 | 23.21738 | 53.33531 | 38854 ft | 436 kts | 290° |
| 2026-05-08 18:21 | 23.24225 | 53.27517 | 38857 ft | 436 kts | 290° |
| 2026-05-08 18:21 | 23.26711 | 53.21499 | 38858 ft | 436 kts | 290° |
| 2026-05-08 18:22 | 23.29193 | 53.15483 | 38857 ft | 436 kts | 290° |
| 2026-05-08 18:22 | 23.31967 | 53.09619 | 38858 ft | 442 kts | 303° |
| 2026-05-08 18:23 | 23.36249 | 53.04758 | 38855 ft | 447 kts | 311° |
| 2026-05-08 18:23 | 23.40708 | 53.00046 | 38857 ft | 447 kts | 311° |
| 2026-05-08 18:24 | 23.45178 | 52.95336 | 38860 ft | 447 kts | 311° |
| 2026-05-08 18:24 | 23.49649 | 52.90620 | 38863 ft | 447 kts | 311° |
| 2026-05-08 18:25 | 23.54118 | 52.85897 | 38867 ft | 448 kts | 311° |
| 2026-05-08 18:25 | 23.58588 | 52.81167 | 38867 ft | 448 kts | 311° |
| 2026-05-08 18:26 | 23.63062 | 52.76426 | 38874 ft | 448 kts | 311° |
| 2026-05-08 18:26 | 23.67537 | 52.71681 | 38876 ft | 449 kts | 311° |
| 2026-05-08 18:27 | 23.71260 | 52.67734 | 38882 ft | 449 kts | 311° |
| 2026-05-08 18:27 | 23.76497 | 52.62173 | 38888 ft | 449 kts | 311° |
| 2026-05-08 18:28 | 23.80972 | 52.57409 | 38886 ft | 450 kts | 311° |
| 2026-05-08 18:28 | 23.85444 | 52.52647 | 38880 ft | 448 kts | 311° |
| 2026-05-08 18:29 | 23.89903 | 52.47895 | 38881 ft | 448 kts | 311° |
| 2026-05-08 18:29 | 23.94359 | 52.43141 | 38882 ft | 447 kts | 311° |
| 2026-05-08 18:30 | 23.98776 | 52.38423 | 38885 ft | 447 kts | 310° |
| 2026-05-08 18:30 | 24.03215 | 52.33677 | 38881 ft | 446 kts | 310° |
| 2026-05-08 18:31 | 24.07650 | 52.28930 | 38885 ft | 446 kts | 310° |
| 2026-05-08 18:31 | 24.12084 | 52.24180 | 38885 ft | 446 kts | 310° |
| 2026-05-08 18:32 | 24.16515 | 52.19428 | 38884 ft | 446 kts | 310° |
| 2026-05-08 18:32 | 24.20944 | 52.14673 | 38881 ft | 446 kts | 310° |
| 2026-05-08 18:33 | 24.25371 | 52.09917 | 38880 ft | 446 kts | 310° |
| 2026-05-08 18:33 | 24.29800 | 52.05153 | 38876 ft | 446 kts | 310° |
| 2026-05-08 18:34 | 24.34231 | 52.00381 | 38873 ft | 447 kts | 310° |
| 2026-05-08 18:34 | 24.38662 | 51.95602 | 38870 ft | 447 kts | 310° |
| 2026-05-08 18:35 | 24.43100 | 51.90812 | 38866 ft | 448 kts | 309° |
| 2026-05-08 18:35 | 24.47546 | 51.86011 | 38866 ft | 449 kts | 309° |
| 2026-05-08 18:36 | 24.51996 | 51.81200 | 38864 ft | 449 kts | 309° |
| 2026-05-08 18:36 | 24.56453 | 51.76376 | 38862 ft | 450 kts | 309° |
| 2026-05-08 18:37 | 24.60915 | 51.71541 | 38867 ft | 451 kts | 309° |
| 2026-05-08 18:37 | 24.65392 | 51.66685 | 38865 ft | 452 kts | 309° |
| 2026-05-08 18:38 | 24.69873 | 51.61819 | 38868 ft | 453 kts | 309° |
| 2026-05-08 18:38 | 24.74361 | 51.56943 | 38872 ft | 454 kts | 309° |
| 2026-05-08 18:39 | 24.78854 | 51.52055 | 38876 ft | 455 kts | 309° |
| 2026-05-08 18:39 | 24.83354 | 51.47153 | 38879 ft | 455 kts | 309° |
| 2026-05-08 18:40 | 24.87842 | 51.42261 | 38879 ft | 453 kts | 309° |
| 2026-05-08 18:40 | 24.92321 | 51.37369 | 38883 ft | 454 kts | 308° |
| 2026-05-08 18:41 | 24.96803 | 51.32471 | 38886 ft | 454 kts | 308° |
| 2026-05-08 18:41 | 25.01283 | 51.27570 | 38891 ft | 454 kts | 308° |
| 2026-05-08 18:42 | 25.05759 | 51.22668 | 38563 ft | 453 kts | 308° |
| 2026-05-08 18:42 | 25.07241 | 51.21043 | 38398 ft | 453 kts | 308° |
| 2026-05-08 18:42 | 25.09473 | 51.18595 | 38075 ft | 453 kts | 308° |
| 2026-05-08 18:43 | 25.11714 | 51.16133 | 37410 ft | 456 kts | 308° |
| 2026-05-08 18:43 | 25.13969 | 51.13654 | 36586 ft | 460 kts | 308° |
| 2026-05-08 18:43 | 25.16250 | 51.11145 | 35674 ft | 466 kts | 308° |
| 2026-05-08 18:43 | 25.18548 | 51.08620 | 34957 ft | 466 kts | 308° |
| 2026-05-08 18:44 | 25.20834 | 51.06112 | 34442 ft | 461 kts | 308° |
| 2026-05-08 18:44 | 25.23109 | 51.03612 | 33599 ft | 463 kts | 308° |
| 2026-05-08 18:44 | 25.25408 | 51.01077 | 32612 ft | 467 kts | 308° |
| 2026-05-08 18:44 | 25.27690 | 50.98566 | 31695 ft | 462 kts | 308° |
| 2026-05-08 18:45 | 25.29956 | 50.96071 | 30926 ft | 456 kts | 308° |
| 2026-05-08 18:45 | 25.32190 | 50.93608 | 30256 ft | 455 kts | 308° |
| 2026-05-08 18:45 | 25.34424 | 50.91143 | 29560 ft | 453 kts | 309° |
| 2026-05-08 18:45 | 25.36645 | 50.88688 | 28921 ft | 449 kts | 309° |
| 2026-05-08 18:46 | 25.38849 | 50.86253 | 28271 ft | 446 kts | 309° |
| 2026-05-08 18:46 | 25.41036 | 50.83835 | 27619 ft | 443 kts | 309° |
| 2026-05-08 18:46 | 25.43210 | 50.81428 | 26977 ft | 441 kts | 309° |
| 2026-05-08 18:46 | 25.45371 | 50.79035 | 26259 ft | 440 kts | 309° |
| 2026-05-08 18:47 | 25.47523 | 50.76651 | 25652 ft | 436 kts | 310° |
| 2026-05-08 18:47 | 25.49653 | 50.74290 | 24991 ft | 428 kts | 310° |
| 2026-05-08 18:47 | 25.51739 | 50.71981 | 24337 ft | 419 kts | 310° |
| 2026-05-08 18:47 | 25.53774 | 50.69725 | 23698 ft | 411 kts | 310° |
| 2026-05-08 18:48 | 25.55781 | 50.67496 | 22999 ft | 409 kts | 311° |
| 2026-05-08 18:48 | 25.57776 | 50.65277 | 22435 ft | 405 kts | 311° |
| 2026-05-08 18:48 | 25.59758 | 50.63072 | 21808 ft | 402 kts | 311° |
| 2026-05-08 18:48 | 25.61728 | 50.60880 | 21174 ft | 400 kts | 311° |
| 2026-05-08 18:49 | 25.63690 | 50.58698 | 20557 ft | 398 kts | 312° |
| 2026-05-08 18:49 | 25.65641 | 50.56525 | 19923 ft | 397 kts | 312° |
| 2026-05-08 18:49 | 25.67587 | 50.54360 | 19243 ft | 393 kts | 312° |
| 2026-05-08 18:49 | 25.69486 | 50.52247 | 18650 ft | 383 kts | 313° |
| 2026-05-08 18:50 | 25.71340 | 50.50184 | 18026 ft | 374 kts | 313° |
| 2026-05-08 18:50 | 25.73172 | 50.48147 | 17439 ft | 372 kts | 313° |
| 2026-05-08 18:50 | 25.74993 | 50.46121 | 16839 ft | 370 kts | 313° |
| 2026-05-08 18:50 | 25.76807 | 50.44096 | 16246 ft | 369 kts | 313° |
| 2026-05-08 18:51 | 25.78613 | 50.42078 | 15648 ft | 368 kts | 313° |
| 2026-05-08 18:51 | 25.80419 | 50.40060 | 15034 ft | 368 kts | 313° |
| 2026-05-08 18:51 | 25.82221 | 50.38046 | 14468 ft | 367 kts | 313° |
| 2026-05-08 18:51 | 25.84009 | 50.36049 | 13966 ft | 364 kts | 313° |
| 2026-05-08 18:52 | 25.85794 | 50.34054 | 13343 ft | 363 kts | 313° |
| 2026-05-08 18:52 | 25.87552 | 50.32091 | 12760 ft | 353 kts | 313° |
| 2026-05-08 18:52 | 25.89257 | 50.30186 | 12203 ft | 344 kts | 313° |
| 2026-05-08 18:52 | 25.90937 | 50.28306 | 11633 ft | 343 kts | 313° |
| 2026-05-08 18:53 | 25.92616 | 50.26426 | 11074 ft | 342 kts | 313° |
| 2026-05-08 18:53 | 25.94292 | 50.24549 | 10486 ft | 343 kts | 313° |
| 2026-05-08 18:53 | 25.95944 | 50.22700 | 10285 ft | 330 kts | 313° |
| 2026-05-08 18:53 | 25.97524 | 50.20933 | 10126 ft | 313 kts | 313° |
| 2026-05-08 18:54 | 25.99012 | 50.19268 | 9902 ft | 296 kts | 313° |
| 2026-05-08 18:54 | 26.00444 | 50.17662 | 9432 ft | 288 kts | 313° |
| 2026-05-08 18:54 | 26.01822 | 50.16115 | 9214 ft | 276 kts | 313° |
| 2026-05-08 18:54 | 26.03195 | 50.14570 | 8867 ft | 286 kts | 313° |
| 2026-05-08 18:55 | 26.06021 | 50.11391 | 8025 ft | 287 kts | 314° |
| 2026-05-08 18:55 | 26.07404 | 50.09836 | 7613 ft | 279 kts | 314° |
| 2026-05-08 18:55 | 26.08750 | 50.08323 | 7214 ft | 271 kts | 315° |
| 2026-05-08 18:56 | 26.10059 | 50.06851 | 6825 ft | 267 kts | 315° |
| 2026-05-08 18:56 | 26.11362 | 50.05384 | 6424 ft | 267 kts | 315° |
| 2026-05-08 18:56 | 26.12669 | 50.03915 | 6016 ft | 267 kts | 315° |
| 2026-05-08 18:56 | 26.13959 | 50.02464 | 5622 ft | 267 kts | 315° |
| 2026-05-08 18:57 | 26.15282 | 50.00975 | 5223 ft | 267 kts | 315° |
| 2026-05-08 18:57 | 26.16141 | 50.00008 | 4953 ft | 262 kts | 315° |
| 2026-05-08 18:57 | 26.17824 | 49.98114 | 4433 ft | 253 kts | 315° |
| 2026-05-08 18:57 | 26.19057 | 49.96724 | 4052 ft | 252 kts | 315° |
| 2026-05-08 18:58 | 26.20288 | 49.95339 | 3671 ft | 251 kts | 314° |
| 2026-05-08 18:58 | 26.21514 | 49.93960 | 3299 ft | 250 kts | 314° |
| 2026-05-08 18:58 | 26.22712 | 49.92614 | 3025 ft | 237 kts | 314° |
| 2026-05-08 18:58 | 26.23820 | 49.91364 | 2903 ft | 222 kts | 314° |
| 2026-05-08 18:59 | 26.24865 | 49.90183 | 2791 ft | 206 kts | 314° |
| 2026-05-08 18:59 | 26.25833 | 49.89087 | 2677 ft | 191 kts | 314° |
| 2026-05-08 18:59 | 26.26726 | 49.88077 | 2592 ft | 174 kts | 316° |
| 2026-05-08 18:59 | 26.27605 | 49.87286 | 2510 ft | 154 kts | 327° |
| 2026-05-08 19:00 | 26.28501 | 49.86786 | 2389 ft | 135 kts | 335° |
| 2026-05-08 19:00 | 26.29356 | 49.86446 | 2160 ft | 129 kts | 339° |
| 2026-05-08 19:00 | 26.30205 | 49.86161 | 1971 ft | 132 kts | 341° |
| 2026-05-08 19:00 | 26.31091 | 49.85882 | 1994 ft | 132 kts | 341° |
| 2026-05-08 19:01 | 26.31967 | 49.85610 | 1997 ft | 131 kts | 341° |
| 2026-05-08 19:01 | 26.32854 | 49.85335 | 2002 ft | 132 kts | 341° |
| 2026-05-08 19:01 | 26.33738 | 49.85061 | 1993 ft | 132 kts | 341° |
| 2026-05-08 19:01 | 26.34620 | 49.84786 | 1994 ft | 131 kts | 341° |
| 2026-05-08 19:02 | 26.35494 | 49.84515 | 1949 ft | 131 kts | 342° |
| 2026-05-08 19:02 | 26.36364 | 49.84245 | 1798 ft | 129 kts | 343° |
| 2026-05-08 19:02 | 26.37228 | 49.83977 | 1640 ft | 129 kts | 343° |
| 2026-05-08 19:02 | 26.38100 | 49.83706 | 1477 ft | 131 kts | 342° |
| 2026-05-08 19:03 | 26.38957 | 49.83440 | 1536 ft | 125 kts | 343° |
| 2026-05-08 19:03 | 26.39845 | 49.83167 | 1445 ft | 134 kts | 343° |
| 2026-05-08 19:03 | 26.40706 | 49.82910 | 1186 ft | 124 kts | 343° |
| 2026-05-08 19:03 | 26.41533 | 49.82667 | 899 ft | 122 kts | 342° |
| 2026-05-08 19:04 | 26.42341 | 49.82449 | 711 ft | 115 kts | 339° |
| 2026-05-08 19:04 | 26.43123 | 49.82234 | 521 ft | 131 kts | 338° |
| 2026-05-08 19:04 | 26.44010 | 49.81911 | 358 ft | 134 kts | 333° |
| 2026-05-08 19:04 | 26.44884 | 49.81590 | 219 ft | 131 kts | 348° |
| 2026-05-08 19:05 | 26.45763 | 49.81320 | 93 ft | 126 kts | 348° |
| 2026-05-08 19:05 | 26.46483 | 49.81107 | 91 ft | 80 kts | 345° |
| 2026-05-08 19:05 | 26.46829 | 49.80995 | 90 ft | 23 kts | 346° |
| 2026-05-08 19:05 | 26.46859 | 49.80986 | 89 ft | 0 kts | 345° |
| 2026-05-08 19:06 | 26.46900 | 49.80975 | 89 ft | 21 kts | 346° |
| 2026-05-08 19:06 | 26.47073 | 49.80951 | 85 ft | 27 kts | 358° |
| 2026-05-08 19:06 | 26.47244 | 49.80983 | 84 ft | 20 kts | 13° |
| 2026-05-08 19:06 | 26.47291 | 49.80997 | 85 ft | 0 kts | 12° |
| 2026-05-08 19:07 | 26.47331 | 49.81006 | 86 ft | 13 kts | 11° |
| 2026-05-08 19:08 | 26.47432 | 49.81019 | 89 ft | 15 kts | 354° |
| 2026-05-08 19:08 | 26.47549 | 49.80986 | 89 ft | 19 kts | 344° |
| 2026-05-08 19:08 | 26.47684 | 49.80945 | 87 ft | 22 kts | 344° |
| 2026-05-08 19:08 | 26.47840 | 49.80896 | 87 ft | 23 kts | 343° |
| 2026-05-08 19:09 | 26.47954 | 49.80883 | 85 ft | 14 kts | 25° |
| 2026-05-08 19:09 | 26.47981 | 49.80959 | 87 ft | 10 kts | 78° |
| 2026-05-08 19:09 | 26.48004 | 49.81045 | 88 ft | 13 kts | 70° |
| 2026-05-08 19:09 | 26.48006 | 49.81121 | 85 ft | 8 kts | 102° |
| 2026-05-08 19:10 | 26.47995 | 49.81196 | 85 ft | 1 kts | 97° |